Time;durP1;ratioP1;P1;durP2;ratioP2;P2;SDS_P1;SDS_P2;PMS_P1;PMS_P2;Temp;Humidity;BMP_temperature;BMP_pressure;BME280_temperature;BME280_humidity;BME280_pressure;Samples;Min_cycle;Max_cycle;Signal;HPM_P1;HPM_P2
2020/12/25 00:01:17;;;;;;;13.73;5.18;;;5.30;99.90;;;;;;4953738;28;20208;-76
2020/12/25 00:03:43;;;;;;;7.75;4.75;;;5.30;99.90;;;;;;4921523;29;20190;-75
2020/12/25 00:06:12;;;;;;;8.48;5.20;;;5.30;99.90;;;;;;4937745;29;20215;-75
2020/12/25 00:08:40;;;;;;;7.88;4.00;;;5.30;99.90;;;;;;4954102;28;20574;-74
2020/12/25 00:11:09;;;;;;;10.10;5.18;;;5.20;99.90;;;;;;4957337;28;20565;-74
2020/12/25 00:13:41;;;;;;;11.45;4.85;;;5.20;99.90;;;;;;4956923;29;20184;-76
2020/12/25 00:16:07;;;;;;;8.75;4.80;;;5.20;99.90;;;;;;4957047;28;20737;-75
2020/12/25 00:18:33;;;;;;;11.32;4.45;;;5.30;99.90;;;;;;4941035;28;20343;-75
2020/12/25 00:20:59;;;;;;;9.40;4.15;;;5.20;99.90;;;;;;4956746;28;20310;-75
2020/12/25 00:23:25;;;;;;;7.60;3.97;;;5.30;99.90;;;;;;4956870;28;20192;-75
2020/12/25 00:25:51;;;;;;;12.15;4.18;;;5.30;99.90;;;;;;4956663;29;20699;-75
2020/12/25 00:28:19;;;;;;;6.80;4.55;;;5.30;99.90;;;;;;4956312;28;20187;-75
2020/12/25 00:30:45;;;;;;;12.52;4.50;;;5.30;99.90;;;;;;4940579;29;20396;-75
2020/12/25 00:33:12;;;;;;;5.80;3.55;;;5.30;99.90;;;;;;4956641;29;20180;-75
2020/12/25 00:35:41;;;;;;;8.95;4.40;;;5.30;99.90;;;;;;4957524;28;20226;-75
2020/12/25 00:38:12;;;;;;;10.00;3.67;;;5.30;99.90;;;;;;4956121;29;20224;-74
2020/12/25 00:40:42;;;;;;;5.70;4.03;;;5.20;99.90;;;;;;4957607;28;20196;-75
2020/12/25 00:43:09;;;;;;;7.63;3.85;;;5.20;99.90;;;;;;4957568;28;20261;-75
2020/12/25 00:45:39;;;;;;;7.78;3.65;;;5.20;99.90;;;;;;4957412;28;20557;-75
2020/12/25 00:48:07;;;;;;;5.70;3.85;;;5.20;99.90;;;;;;4956644;28;20264;-75
2020/12/25 00:50:37;;;;;;;11.27;4.10;;;5.20;99.90;;;;;;4957368;28;20243;-75
2020/12/25 00:53:04;;;;;;;6.20;3.55;;;5.20;99.90;;;;;;4940331;29;20592;-75
2020/12/25 00:55:30;;;;;;;7.18;3.47;;;5.10;99.90;;;;;;4956127;28;20179;-75
2020/12/25 00:57:59;;;;;;;4.80;3.08;;;5.20;99.90;;;;;;4940172;29;20181;-75
2020/12/25 01:00:29;;;;;;;12.52;3.80;;;5.20;99.90;;;;;;4956117;29;20180;-75
2020/12/25 01:02:57;;;;;;;4.28;3.00;;;5.20;99.90;;;;;;4956081;28;20188;-75
2020/12/25 01:05:23;;;;;;;7.70;4.00;;;5.20;99.90;;;;;;4955771;29;20199;-75
2020/12/25 01:07:54;;;;;;;5.22;3.55;;;5.20;99.90;;;;;;4957175;28;20234;-75
2020/12/25 01:10:20;;;;;;;6.13;3.17;;;5.10;99.90;;;;;;4955885;28;20218;-75
2020/12/25 01:12:48;;;;;;;4.18;2.90;;;5.00;99.90;;;;;;4957169;28;20557;-75
2020/12/25 01:15:17;;;;;;;8.55;3.33;;;5.00;99.90;;;;;;4940343;29;20528;-75
2020/12/25 01:17:43;;;;;;;9.77;3.70;;;5.00;99.90;;;;;;4955767;28;20219;-75
2020/12/25 01:20:11;;;;;;;5.00;3.13;;;5.00;99.90;;;;;;4940040;28;20188;-75
2020/12/25 01:22:42;;;;;;;9.73;3.67;;;4.90;99.90;;;;;;4940939;28;20196;-75
2020/12/25 01:25:13;;;;;;;8.43;4.18;;;4.90;99.90;;;;;;4955422;29;20676;-75
2020/12/25 01:27:41;;;;;;;4.97;2.97;;;4.90;99.90;;;;;;4955747;28;20833;-75
2020/12/25 01:30:07;;;;;;;5.95;2.88;;;5.00;99.90;;;;;;4955474;29;20302;-75
2020/12/25 01:32:35;;;;;;;6.20;3.17;;;5.10;99.90;;;;;;4939772;29;20184;-75
2020/12/25 01:35:04;;;;;;;11.63;4.85;;;4.90;99.90;;;;;;4955702;29;20677;-75
2020/12/25 01:37:31;;;;;;;6.22;3.88;;;5.00;99.90;;;;;;4955302;28;20726;-75
2020/12/25 01:40:01;;;;;;;5.93;3.40;;;4.90;99.90;;;;;;4956737;28;20196;-75
2020/12/25 01:42:27;;;;;;;8.48;3.65;;;4.90;99.90;;;;;;4956443;28;20199;-75
2020/12/25 01:44:56;;;;;;;5.05;2.90;;;4.90;99.90;;;;;;4939590;29;20596;-75
2020/12/25 01:47:23;;;;;;;4.07;2.65;;;4.90;99.90;;;;;;4955431;28;20208;-75
2020/12/25 01:49:49;;;;;;;5.82;2.70;;;4.90;99.90;;;;;;4955967;28;20208;-75
2020/12/25 01:52:24;;;;;;;4.88;3.05;;;4.80;99.90;;;;;;4955376;29;20176;-75
2020/12/25 01:54:53;;;;;;;6.15;3.03;;;5.00;99.90;;;;;;4939921;29;20626;-75
2020/12/25 01:57:23;;;;;;;8.40;2.72;;;4.80;99.90;;;;;;4956032;28;20219;-75
2020/12/25 01:59:52;;;;;;;9.70;3.15;;;4.80;99.90;;;;;;4956240;28;20338;-75
2020/12/25 02:02:24;;;;;;;6.43;2.78;;;4.70;99.90;;;;;;4939401;29;20211;-75
2020/12/25 02:04:53;;;;;;;4.28;2.58;;;4.70;99.90;;;;;;4955127;28;20551;-75
2020/12/25 02:07:26;;;;;;;5.22;2.67;;;4.70;99.90;;;;;;4954590;28;20210;-75
2020/12/25 02:09:52;;;;;;;7.30;2.58;;;4.70;99.90;;;;;;4938854;29;20567;-75
2020/12/25 02:12:21;;;;;;;5.03;2.75;;;4.70;99.90;;;;;;4956312;28;20176;-75
2020/12/25 02:14:49;;;;;;;4.95;2.38;;;4.70;99.90;;;;;;4955643;28;20176;-75
2020/12/25 02:17:16;;;;;;;9.50;2.72;;;4.70;99.90;;;;;;4954645;28;20669;-75
2020/12/25 02:19:44;;;;;;;12.02;2.95;;;4.70;99.90;;;;;;4954391;29;20232;-75
2020/12/25 02:22:15;;;;;;;4.90;3.30;;;4.60;99.90;;;;;;4939104;29;20188;-73
2020/12/25 02:24:41;;;;;;;5.75;2.65;;;4.60;99.90;;;;;;4955161;28;20192;-73
2020/12/25 02:27:07;;;;;;;7.63;2.60;;;4.60;99.90;;;;;;4936733;29;20761;-73
2020/12/25 02:29:35;;;;;;;10.32;2.42;;;4.60;99.90;;;;;;4945076;29;20212;-75
2020/12/25 02:32:05;;;;;;;4.45;1.90;;;4.50;99.90;;;;;;4954077;28;20272;-75
2020/12/25 02:34:31;;;;;;;6.00;2.25;;;4.50;99.90;;;;;;4938500;29;20661;-75
2020/12/25 02:36:57;;;;;;;4.05;2.33;;;4.50;99.90;;;;;;4954780;28;20227;-75
2020/12/25 02:39:26;;;;;;;7.45;2.80;;;4.40;99.90;;;;;;4954334;28;20239;-76
2020/12/25 02:41:52;;;;;;;4.43;2.13;;;4.40;99.90;;;;;;4955342;28;20180;-74
2020/12/25 02:44:19;;;;;;;14.02;4.68;;;4.40;99.90;;;;;;4938734;28;20566;-74
2020/12/25 02:46:49;;;;;;;6.20;2.30;;;4.40;99.90;;;;;;4938132;29;20269;-74
2020/12/25 02:49:15;;;;;;;4.25;2.20;;;4.40;99.90;;;;;;4946120;29;20295;-74
2020/12/25 02:51:46;;;;;;;4.72;2.13;;;4.40;99.90;;;;;;4935985;29;20192;-74
2020/12/25 02:54:14;;;;;;;4.97;3.00;;;4.60;99.90;;;;;;4934779;29;20176;-75
2020/12/25 02:56:43;;;;;;;5.15;2.67;;;4.60;99.90;;;;;;4949761;29;20262;-75
2020/12/25 02:59:12;;;;;;;9.13;2.28;;;4.60;99.90;;;;;;4938543;29;20200;-74
2020/12/25 03:01:40;;;;;;;9.23;2.35;;;4.50;99.90;;;;;;4954925;28;20525;-73
2020/12/25 03:04:12;;;;;;;5.72;2.45;;;4.40;99.90;;;;;;4953757;28;20190;-75
2020/12/25 03:06:41;;;;;;;9.13;2.78;;;4.30;99.90;;;;;;4937610;28;20777;-75
2020/12/25 03:09:20;;;;;;;7.22;2.60;;;4.30;99.90;;;;;;4934347;28;20208;-74
2020/12/25 03:11:46;;;;;;;10.10;2.63;;;4.30;99.90;;;;;;4942946;29;20198;-74
2020/12/25 03:14:13;;;;;;;5.22;2.55;;;4.40;99.90;;;;;;4954806;28;20711;-75
2020/12/25 03:16:41;;;;;;;5.05;2.60;;;4.20;99.90;;;;;;4953202;29;20709;-74
2020/12/25 03:19:07;;;;;;;11.50;3.45;;;4.20;99.90;;;;;;4918335;29;20184;-75
2020/12/25 03:21:33;;;;;;;11.10;2.50;;;4.20;99.90;;;;;;4934878;29;20786;-75
2020/12/25 03:24:02;;;;;;;6.65;3.15;;;4.10;99.90;;;;;;4934478;29;20425;-76
2020/12/25 03:26:29;;;;;;;9.88;2.40;;;4.10;99.90;;;;;;4929322;29;20205;-74
2020/12/25 03:28:55;;;;;;;7.32;2.22;;;4.00;99.90;;;;;;4950003;29;20181;-74
2020/12/25 03:31:21;;;;;;;12.27;3.20;;;4.00;99.90;;;;;;4935450;29;20192;-75
2020/12/25 03:33:47;;;;;;;5.70;2.70;;;4.00;99.90;;;;;;4953291;28;20184;-75
2020/12/25 03:36:18;;;;;;;12.23;3.15;;;4.00;99.90;;;;;;4954102;28;20227;-74
2020/12/25 03:38:44;;;;;;;7.32;3.22;;;4.00;99.90;;;;;;4954640;28;20211;-75
2020/12/25 03:41:12;;;;;;;10.43;2.75;;;4.00;99.90;;;;;;4952804;28;20613;-74
2020/12/25 03:43:41;;;;;;;6.68;2.85;;;4.00;99.90;;;;;;4921009;29;20184;-76
2020/12/25 03:46:07;;;;;;;11.93;2.97;;;3.90;99.90;;;;;;4952843;28;20216;-75
2020/12/25 03:48:36;;;;;;;6.82;2.95;;;3.90;99.90;;;;;;4925820;29;20247;-75
2020/12/25 03:51:04;;;;;;;10.02;3.00;;;3.90;99.90;;;;;;4935472;29;20286;-75
2020/12/25 03:53:30;;;;;;;7.95;3.17;;;3.90;99.90;;;;;;4953100;29;20180;-74
2020/12/25 03:55:58;;;;;;;9.18;3.03;;;4.00;99.90;;;;;;4952723;28;20249;-73
2020/12/25 03:58:24;;;;;;;7.47;3.00;;;3.90;99.90;;;;;;4954506;28;20600;-74
2020/12/25 04:00:56;;;;;;;9.63;3.65;;;3.90;99.90;;;;;;4953251;29;20188;-75
2020/12/25 04:03:24;;;;;;;11.82;3.40;;;3.80;99.90;;;;;;4918082;29;20210;-75
2020/12/25 04:05:50;;;;;;;9.77;3.22;;;4.00;99.90;;;;;;4949390;29;20204;-74
2020/12/25 04:08:17;;;;;;;9.82;3.38;;;3.90;99.90;;;;;;4953040;29;20219;-75
2020/12/25 04:10:50;;;;;;;10.67;4.00;;;3.90;99.90;;;;;;4953324;28;20506;-74
2020/12/25 04:13:19;;;;;;;12.07;3.60;;;3.90;99.90;;;;;;4952775;29;20436;-74
2020/12/25 04:15:45;;;;;;;6.75;3.05;;;4.00;99.90;;;;;;4937311;29;20690;-74
2020/12/25 04:18:13;;;;;;;7.32;3.80;;;3.90;99.90;;;;;;4953313;28;20211;-75
2020/12/25 04:20:42;;;;;;;12.80;3.67;;;3.80;99.90;;;;;;4936979;29;20204;-74
2020/12/25 04:23:13;;;;;;;12.23;4.00;;;4.00;99.90;;;;;;4950641;28;20191;-75
2020/12/25 04:25:39;;;;;;;10.25;4.25;;;3.80;99.90;;;;;;4953171;28;20557;-74
2020/12/25 04:28:08;;;;;;;8.43;4.35;;;4.00;99.90;;;;;;4954340;28;20608;-75
2020/12/25 04:30:34;;;;;;;11.35;4.25;;;3.60;99.90;;;;;;4954042;28;20216;-75
2020/12/25 04:33:03;;;;;;;12.38;4.88;;;3.70;99.90;;;;;;4954394;28;20669;-75
2020/12/25 04:35:32;;;;;;;15.52;4.40;;;3.50;99.90;;;;;;4937243;28;20610;-75
2020/12/25 04:38:02;;;;;;;7.57;3.45;;;3.50;99.90;;;;;;4936825;29;20235;-75
2020/12/25 04:40:33;;;;;;;16.48;4.65;;;3.50;99.90;;;;;;4954116;29;20239;-75
2020/12/25 04:43:02;;;;;;;12.88;4.95;;;3.50;99.90;;;;;;4953777;28;20184;-75
2020/12/25 04:45:28;;;;;;;8.50;3.53;;;3.50;99.90;;;;;;4921109;28;20212;-75
2020/12/25 04:47:58;;;;;;;9.75;4.15;;;3.40;99.90;;;;;;4952957;28;20192;-74
2020/12/25 04:50:24;;;;;;;9.60;4.00;;;3.20;99.90;;;;;;4952283;28;20219;-74
2020/12/25 04:52:55;;;;;;;9.27;4.38;;;3.30;99.90;;;;;;4952449;28;20184;-74
2020/12/25 04:55:21;;;;;;;14.43;4.20;;;3.30;99.90;;;;;;4954760;28;20180;-75
2020/12/25 04:57:48;;;;;;;11.40;4.10;;;3.20;99.90;;;;;;4975326;28;20179;-74
2020/12/25 05:00:18;;;;;;;10.02;3.88;;;3.20;99.90;;;;;;4975395;28;20186;-75
2020/12/25 05:02:49;;;;;;;15.02;4.40;;;3.20;99.90;;;;;;4956517;28;20184;-74
2020/12/25 05:05:27;;;;;;;17.42;4.43;;;3.10;99.90;;;;;;4957224;28;20236;-74
2020/12/25 05:07:53;;;;;;;8.23;3.88;;;3.20;99.90;;;;;;4955788;28;20196;-74
2020/12/25 05:10:24;;;;;;;10.40;4.00;;;3.30;99.90;;;;;;4940656;29;20649;-74
2020/12/25 05:12:54;;;;;;;9.73;3.65;;;3.00;99.90;;;;;;4937958;29;20275;-74
2020/12/25 05:15:22;;;;;;;9.00;3.72;;;2.90;99.90;;;;;;4937455;29;20283;-75
2020/12/25 05:17:54;;;;;;;10.40;4.53;;;3.00;99.90;;;;;;4953948;29;20580;-75
2020/12/25 05:20:21;;;;;;;8.38;4.18;;;3.10;99.90;;;;;;4956757;28;20195;-75
2020/12/25 05:22:50;;;;;;;8.85;4.05;;;2.90;99.90;;;;;;4950068;28;20724;-75
2020/12/25 05:25:19;;;;;;;9.57;4.43;;;2.90;99.90;;;;;;4936611;29;20605;-74
2020/12/25 05:27:49;;;;;;;10.18;4.45;;;2.70;99.90;;;;;;4936926;28;20263;-74
2020/12/25 05:30:17;;;;;;;6.65;3.47;;;2.90;99.90;;;;;;4932054;29;20214;-74
2020/12/25 05:32:46;;;;;;;9.27;3.70;;;2.80;99.90;;;;;;4939688;29;20216;-74
2020/12/25 05:35:14;;;;;;;8.80;4.20;;;2.80;99.90;;;;;;4955555;29;20740;-74
2020/12/25 05:37:43;;;;;;;11.27;3.72;;;2.80;99.90;;;;;;4956233;28;20236;-75
2020/12/25 05:40:19;;;;;;;5.85;3.65;;;2.80;99.90;;;;;;4936196;29;20202;-74
2020/12/25 05:42:49;;;;;;;11.30;4.38;;;3.00;99.90;;;;;;4936560;29;20191;-75
2020/12/25 05:45:21;;;;;;;10.82;4.30;;;2.60;99.90;;;;;;4936315;29;20177;-74
2020/12/25 05:48:05;;;;;;;9.95;4.30;;;2.70;99.90;;;;;;4936161;29;20197;-74
2020/12/25 05:50:37;;;;;;;10.82;4.47;;;2.70;99.90;;;;;;4949578;28;20215;-74
2020/12/25 05:53:06;;;;;;;7.53;4.43;;;2.70;99.90;;;;;;4955003;29;20246;-74
2020/12/25 05:55:33;;;;;;;9.07;3.83;;;2.70;99.90;;;;;;4955202;28;20234;-75
2020/12/25 05:58:00;;;;;;;9.98;4.43;;;2.70;99.90;;;;;;4956510;28;20176;-74
2020/12/25 06:00:33;;;;;;;6.50;3.92;;;2.60;99.90;;;;;;4956356;28;20662;-75
2020/12/25 06:03:00;;;;;;;8.70;4.20;;;2.60;99.90;;;;;;4956414;28;20187;-74
2020/12/25 06:05:30;;;;;;;7.82;4.20;;;2.70;99.90;;;;;;4955982;28;20180;-74
2020/12/25 06:08:08;;;;;;;9.63;4.25;;;2.50;99.90;;;;;;4965326;28;20201;-74
2020/12/25 06:10:43;;;;;;;12.60;4.30;;;2.60;99.90;;;;;;4951094;29;20258;-75
2020/12/25 06:13:16;;;;;;;11.68;4.57;;;2.80;99.90;;;;;;4954926;28;20217;-75
2020/12/25 06:15:51;;;;;;;14.02;5.25;;;2.70;99.90;;;;;;4946444;28;20208;-74
2020/12/25 06:18:41;;;;;;;9.93;4.68;;;2.70;99.90;;;;;;4955933;28;20215;-75
2020/12/25 06:21:16;;;;;;;6.40;3.80;;;2.70;99.90;;;;;;4938441;28;20192;-75
2020/12/25 06:23:46;;;;;;;12.52;5.55;;;2.80;99.90;;;;;;4955847;28;20187;-75
2020/12/25 06:26:20;;;;;;;8.88;3.65;;;2.80;99.90;;;;;;4973631;28;20688;-75
2020/12/25 06:28:48;;;;;;;10.52;4.45;;;2.90;99.90;;;;;;4940467;28;20192;-75
2020/12/25 06:31:44;;;;;;;12.02;5.22;;;3.00;99.90;;;;;;4953757;29;20214;-75
2020/12/25 06:34:11;;;;;;;15.75;3.90;;;3.00;99.90;;;;;;4955559;29;20179;-75
2020/12/25 06:36:44;;;;;;;8.57;3.50;;;3.10;99.90;;;;;;4954049;28;20224;-75
2020/12/25 06:39:13;;;;;;;5.40;3.03;;;3.20;99.90;;;;;;4938595;29;20196;-75
2020/12/25 06:41:40;;;;;;;10.48;4.25;;;3.40;99.90;;;;;;4938345;29;20589;-75
2020/12/25 06:44:15;;;;;;;10.38;3.65;;;3.30;99.90;;;;;;4955339;28;20286;-75
2020/12/25 06:46:51;;;;;;;10.45;3.30;;;3.20;99.90;;;;;;4938371;29;20203;-75
2020/12/25 06:49:22;;;;;;;9.07;3.33;;;3.30;99.90;;;;;;4954070;29;20179;-76
2020/12/25 06:51:48;;;;;;;6.70;3.10;;;3.40;99.90;;;;;;4953822;28;20561;-74
2020/12/25 06:54:19;;;;;;;6.72;3.42;;;3.30;99.90;;;;;;4938825;29;20176;-78
2020/12/25 06:56:54;;;;;;;9.77;4.00;;;3.40;99.90;;;;;;4940041;29;20262;-75
2020/12/25 06:59:22;;;;;;;17.65;4.28;;;3.70;99.90;;;;;;4954457;28;20180;-77
2020/12/25 07:01:50;;;;;;;9.10;3.65;;;3.40;99.90;;;;;;4955548;28;20188;-75
2020/12/25 07:04:26;;;;;;;9.30;3.95;;;3.50;99.90;;;;;;4953928;28;20222;-74
2020/12/25 07:07:01;;;;;;;10.35;5.18;;;3.60;99.90;;;;;;4952119;28;20298;-75
2020/12/25 07:09:41;;;;;;;7.68;3.55;;;3.60;99.90;;;;;;4958939;28;20229;-74
2020/12/25 07:12:21;;;;;;;10.55;4.63;;;3.40;99.90;;;;;;4938357;29;20183;-75
2020/12/25 07:14:50;;;;;;;9.85;4.30;;;3.60;99.90;;;;;;4951870;28;20219;-75
2020/12/25 07:17:21;;;;;;;8.07;4.35;;;3.80;99.90;;;;;;4936326;29;20223;-75
2020/12/25 07:19:47;;;;;;;6.72;4.50;;;3.70;99.90;;;;;;4954219;28;20176;-75
2020/12/25 07:22:15;;;;;;;10.47;3.63;;;3.70;99.90;;;;;;4969006;28;20235;-75
2020/12/25 07:24:43;;;;;;;11.57;5.75;;;3.70;99.90;;;;;;4953050;28;20979;-74
2020/12/25 07:27:10;;;;;;;11.93;4.70;;;3.80;99.90;;;;;;4952835;28;20204;-75
2020/12/25 07:29:39;;;;;;;9.57;4.72;;;3.70;99.90;;;;;;4951912;29;20227;-75
2020/12/25 07:32:05;;;;;;;10.63;4.57;;;3.80;99.90;;;;;;4971056;28;20176;-75
2020/12/25 07:34:32;;;;;;;8.23;3.70;;;3.70;99.90;;;;;;4955420;28;20187;-75
2020/12/25 07:37:03;;;;;;;16.17;4.90;;;3.60;99.90;;;;;;4971350;28;20258;-75
2020/12/25 07:39:31;;;;;;;8.30;3.88;;;3.60;99.90;;;;;;4960571;28;20562;-75
2020/12/25 07:42:00;;;;;;;5.85;3.25;;;3.60;99.90;;;;;;4935393;29;20180;-75
2020/12/25 07:44:33;;;;;;;11.55;4.00;;;3.60;99.90;;;;;;4951506;28;20188;-75
2020/12/25 07:47:08;;;;;;;12.10;4.45;;;3.60;99.90;;;;;;4935595;29;20215;-75
2020/12/25 07:49:44;;;;;;;4.90;2.70;;;3.50;99.90;;;;;;4951823;28;20203;-74
2020/12/25 07:52:13;;;;;;;6.70;4.00;;;3.50;99.90;;;;;;4951651;28;20553;-75
2020/12/25 07:54:40;;;;;;;6.72;2.90;;;3.60;99.90;;;;;;4935301;29;20180;-74
2020/12/25 07:57:09;;;;;;;9.07;3.08;;;3.80;99.90;;;;;;4952985;28;20200;-75
2020/12/25 07:59:40;;;;;;;5.32;3.28;;;3.60;99.90;;;;;;4959658;28;20202;-75
2020/12/25 08:02:12;;;;;;;8.90;3.30;;;3.50;99.90;;;;;;4971797;28;20737;-75
2020/12/25 08:04:43;;;;;;;5.40;2.70;;;3.50;99.90;;;;;;4971407;28;20657;-75
2020/12/25 08:07:10;;;;;;;8.82;2.90;;;3.60;99.90;;;;;;4937779;28;20700;-75
2020/12/25 08:09:39;;;;;;;5.60;2.70;;;3.60;99.90;;;;;;4942383;28;20710;-75
2020/12/25 08:12:10;;;;;;;6.05;2.90;;;3.70;99.90;;;;;;4954410;28;20189;-75
2020/12/25 08:14:40;;;;;;;5.32;3.20;;;3.60;99.90;;;;;;4968390;28;20661;-75
2020/12/25 08:17:11;;;;;;;5.00;2.75;;;3.50;99.90;;;;;;4957523;28;20234;-75
2020/12/25 08:19:37;;;;;;;6.78;3.60;;;3.60;99.90;;;;;;4950179;29;20184;-73
2020/12/25 08:22:08;;;;;;;4.65;3.17;;;3.60;99.90;;;;;;4955171;28;20554;-74
2020/12/25 08:24:35;;;;;;;13.23;3.38;;;3.50;99.90;;;;;;4956475;28;20681;-74
2020/12/25 08:27:06;;;;;;;6.35;3.45;;;3.50;99.90;;;;;;4934947;28;20204;-73
2020/12/25 08:29:33;;;;;;;6.55;3.13;;;3.40;99.90;;;;;;4952271;28;20211;-74
2020/12/25 08:32:09;;;;;;;9.13;4.05;;;3.40;99.90;;;;;;4936795;28;20191;-74
2020/12/25 08:34:37;;;;;;;8.30;2.88;;;3.40;99.90;;;;;;4921265;29;20692;-74
2020/12/25 08:37:07;;;;;;;7.40;3.00;;;3.40;99.90;;;;;;4957716;28;20239;-74
2020/12/25 08:39:35;;;;;;;10.02;4.15;;;3.40;99.90;;;;;;4964922;28;20558;-74
2020/12/25 08:42:09;;;;;;;6.78;3.20;;;3.50;99.90;;;;;;4956002;28;20208;-74
2020/12/25 08:44:36;;;;;;;6.60;3.10;;;3.30;99.90;;;;;;4938328;29;20276;-74
2020/12/25 08:47:09;;;;;;;6.90;3.10;;;3.30;99.90;;;;;;4954287;28;20222;-74
2020/12/25 08:49:36;;;;;;;7.90;3.90;;;3.40;99.90;;;;;;4938134;29;20299;-74
2020/12/25 08:52:02;;;;;;;7.60;3.00;;;3.40;99.90;;;;;;4938340;29;20681;-74
2020/12/25 08:54:31;;;;;;;8.27;2.75;;;3.50;99.90;;;;;;4974696;28;20186;-75
2020/12/25 08:56:58;;;;;;;5.75;2.65;;;3.80;99.90;;;;;;4963522;28;20597;-74
2020/12/25 08:59:28;;;;;;;6.70;2.95;;;3.60;99.90;;;;;;4955451;28;20259;-74
2020/12/25 09:01:54;;;;;;;4.00;2.28;;;3.70;99.90;;;;;;4952268;28;20230;-75
2020/12/25 09:04:23;;;;;;;7.28;3.03;;;3.90;99.90;;;;;;4966300;28;20192;-74
2020/12/25 09:06:53;;;;;;;7.43;2.90;;;3.90;99.90;;;;;;4962585;28;20689;-75
2020/12/25 09:09:26;;;;;;;4.25;2.72;;;4.10;99.90;;;;;;4935003;29;20713;-74
2020/12/25 09:11:52;;;;;;;8.80;3.17;;;4.20;99.90;;;;;;4964654;28;20178;-75
2020/12/25 09:14:18;;;;;;;5.47;3.13;;;4.40;99.90;;;;;;4973069;28;20199;-75
2020/12/25 09:16:44;;;;;;;4.20;3.25;;;4.60;99.90;;;;;;4971946;28;20582;-74
2020/12/25 09:19:12;;;;;;;7.10;3.20;;;4.80;99.90;;;;;;4938132;29;20515;-75
2020/12/25 09:21:41;;;;;;;8.35;2.75;;;4.80;99.90;;;;;;4954150;29;20685;-75
2020/12/25 09:24:10;;;;;;;4.93;2.92;;;4.90;99.90;;;;;;4953871;28;20664;-76
2020/12/25 09:26:47;;;;;;;7.15;3.00;;;5.00;99.90;;;;;;4954916;28;20199;-75
2020/12/25 09:29:20;;;;;;;4.28;2.75;;;5.10;99.90;;;;;;4953945;29;20516;-74
2020/12/25 09:31:50;;;;;;;5.10;2.85;;;5.00;99.90;;;;;;4937215;29;20200;-73
2020/12/25 09:34:19;;;;;;;5.63;3.03;;;4.90;99.90;;;;;;4936912;29;20184;-75
2020/12/25 09:36:47;;;;;;;10.57;2.80;;;4.80;99.90;;;;;;4966348;28;20286;-74
2020/12/25 09:39:16;;;;;;;5.10;3.13;;;4.80;99.90;;;;;;4954447;28;20187;-74
2020/12/25 09:41:42;;;;;;;8.88;2.85;;;4.80;99.90;;;;;;4952148;28;20188;-74
2020/12/25 09:44:10;;;;;;;6.38;3.00;;;4.90;99.90;;;;;;4932314;28;20234;-74
2020/12/25 09:46:42;;;;;;;9.70;3.15;;;4.80;99.90;;;;;;4956009;28;20207;-74
2020/12/25 09:49:11;;;;;;;4.80;2.95;;;4.80;99.90;;;;;;4973511;28;20637;-74
2020/12/25 09:51:37;;;;;;;9.40;3.37;;;4.80;99.90;;;;;;4950108;28;20194;-74
2020/12/25 09:54:03;;;;;;;4.88;2.35;;;4.90;99.90;;;;;;4962894;28;20441;-74
2020/12/25 09:56:29;;;;;;;5.25;2.85;;;5.00;99.90;;;;;;4967446;28;20298;-74
2020/12/25 09:58:58;;;;;;;5.80;3.30;;;5.10;99.90;;;;;;4951559;28;20187;-74
2020/12/25 10:01:27;;;;;;;4.43;2.67;;;5.10;99.90;;;;;;4921840;29;20272;-74
2020/12/25 10:03:53;;;;;;;9.15;2.80;;;5.10;99.90;;;;;;4963789;28;20198;-74
2020/12/25 10:06:25;;;;;;;5.75;2.95;;;5.20;99.90;;;;;;4970308;28;20214;-74
2020/12/25 10:08:51;;;;;;;6.38;3.30;;;5.20;99.90;;;;;;4953309;28;20206;-74
2020/12/25 10:11:20;;;;;;;13.23;3.42;;;5.00;99.90;;;;;;4951881;28;20211;-73
2020/12/25 10:13:49;;;;;;;12.85;3.38;;;5.00;99.90;;;;;;4953384;29;20701;-73
2020/12/25 10:16:17;;;;;;;11.73;3.35;;;5.10;99.90;;;;;;4953094;28;20286;-73
2020/12/25 10:18:45;;;;;;;5.88;2.75;;;5.00;99.90;;;;;;4952731;28;20191;-77
2020/12/25 10:21:16;;;;;;;8.07;3.50;;;5.10;99.90;;;;;;4957194;28;20176;-75
2020/12/25 10:23:42;;;;;;;5.82;2.42;;;5.10;99.90;;;;;;4936979;29;20192;-73
2020/12/25 10:26:12;;;;;;;7.00;2.83;;;5.10;99.90;;;;;;4958495;28;20843;-74
2020/12/25 10:28:41;;;;;;;5.80;3.15;;;5.10;99.90;;;;;;4972954;28;20258;-75
2020/12/25 10:31:10;;;;;;;6.55;2.90;;;5.20;99.90;;;;;;4929972;28;20556;-74
2020/12/25 10:33:40;;;;;;;6.63;2.95;;;5.20;99.90;;;;;;4959623;28;20176;-76
2020/12/25 10:36:06;;;;;;;9.50;3.95;;;5.30;99.90;;;;;;4958007;28;20211;-75
2020/12/25 10:38:33;;;;;;;10.10;2.53;;;5.40;99.90;;;;;;4952421;28;20227;-75
2020/12/25 10:41:02;;;;;;;10.35;3.35;;;5.60;99.90;;;;;;4962259;28;20430;-76
2020/12/25 10:43:31;;;;;;;3.85;2.40;;;5.80;99.90;;;;;;4972542;28;20210;-74
2020/12/25 10:45:57;;;;;;;8.00;2.80;;;5.90;99.90;;;;;;4941608;28;20229;-72
2020/12/25 10:48:24;;;;;;;5.90;2.55;;;5.90;99.90;;;;;;4951569;28;20188;-74
2020/12/25 10:50:52;;;;;;;4.30;2.20;;;5.90;99.90;;;;;;4955319;28;20579;-74
2020/12/25 10:53:18;;;;;;;9.68;2.65;;;6.00;99.90;;;;;;4952529;28;20184;-73
2020/12/25 10:55:46;;;;;;;7.03;4.90;;;5.90;99.90;;;;;;4964956;28;20199;-73
2020/12/25 10:58:17;;;;;;;4.82;2.60;;;6.00;99.90;;;;;;4953642;28;20221;-74
2020/12/25 11:00:43;;;;;;;6.90;3.67;;;6.10;99.90;;;;;;4939511;29;20199;-72
2020/12/25 11:03:10;;;;;;;10.27;4.30;;;6.10;99.90;;;;;;4950611;29;20628;-74
2020/12/25 11:05:38;;;;;;;8.48;3.70;;;6.10;99.90;;;;;;4949530;28;20207;-72
2020/12/25 11:08:05;;;;;;;9.38;4.45;;;6.10;99.90;;;;;;4952404;28;20384;-74
2020/12/25 11:10:31;;;;;;;7.10;3.92;;;6.20;99.90;;;;;;4947082;28;20282;-73
2020/12/25 11:12:57;;;;;;;10.23;5.78;;;6.10;99.90;;;;;;4972726;28;20277;-79
2020/12/25 11:15:25;;;;;;;8.23;3.30;;;6.00;99.90;;;;;;4955177;28;20191;-74
2020/12/25 11:17:51;;;;;;;6.50;3.65;;;6.10;99.90;;;;;;4962833;28;20188;-80
2020/12/25 11:20:17;;;;;;;9.73;3.45;;;6.10;99.90;;;;;;4942491;29;20188;-81
2020/12/25 11:22:49;;;;;;;4.30;3.90;;;6.10;99.90;;;;;;4956299;28;20195;-77
2020/12/25 11:25:17;;;;;;;7.20;3.00;;;6.20;99.90;;;;;;4966768;28;20194;-79
2020/12/25 11:27:45;;;;;;;9.25;3.38;;;6.20;99.90;;;;;;4960887;28;20247;-78
2020/12/25 11:30:11;;;;;;;8.30;4.47;;;6.20;99.90;;;;;;4951063;28;20250;-73
2020/12/25 11:32:40;;;;;;;5.15;4.32;;;6.30;99.90;;;;;;4953271;28;20412;-78
2020/12/25 11:35:08;;;;;;;10.35;5.25;;;6.30;99.90;;;;;;4941492;29;20197;-75
2020/12/25 11:37:37;;;;;;;7.32;3.97;;;6.20;99.90;;;;;;4953960;28;20228;-75
2020/12/25 11:40:05;;;;;;;12.77;5.82;;;6.20;99.90;;;;;;4955939;29;20207;-79
2020/12/25 11:42:33;;;;;;;10.10;4.20;;;6.20;99.90;;;;;;4957100;29;20179;-79
2020/12/25 11:45:02;;;;;;;8.95;4.35;;;6.20;99.90;;;;;;4938590;29;20181;-79
2020/12/25 11:47:35;;;;;;;8.50;5.00;;;6.30;99.90;;;;;;4923029;29;20266;-80
2020/12/25 11:50:01;;;;;;;13.30;4.07;;;6.40;99.90;;;;;;4939394;29;20244;-80
2020/12/25 11:52:34;;;;;;;6.03;3.77;;;6.50;99.90;;;;;;4956989;29;20239;-79
2020/12/25 11:55:03;;;;;;;8.38;4.32;;;6.50;99.90;;;;;;4955938;28;20439;-75
2020/12/25 11:57:29;;;;;;;8.90;4.60;;;6.50;99.90;;;;;;4953732;29;20211;-74
2020/12/25 11:59:59;;;;;;;9.70;3.65;;;6.30;99.90;;;;;;4952972;29;20924;-74
2020/12/25 12:02:28;;;;;;;10.55;3.45;;;6.30;99.90;;;;;;4954163;28;20241;-73
2020/12/25 12:04:56;;;;;;;8.63;4.25;;;6.10;99.90;;;;;;4937284;29;20179;-72
2020/12/25 12:07:22;;;;;;;5.97;3.00;;;6.10;99.90;;;;;;4956688;28;20237;-71
2020/12/25 12:09:50;;;;;;;8.90;4.75;;;6.10;99.90;;;;;;4940946;29;20317;-72
2020/12/25 12:12:17;;;;;;;7.83;3.43;;;6.00;99.90;;;;;;4941374;29;20320;-73
2020/12/25 12:14:43;;;;;;;6.82;4.53;;;6.00;99.90;;;;;;4956864;29;20423;-73
2020/12/25 12:17:09;;;;;;;8.52;3.67;;;6.00;99.90;;;;;;4956632;29;20262;-73
2020/12/25 12:19:37;;;;;;;11.60;4.85;;;6.10;99.90;;;;;;4957339;28;20183;-73
2020/12/25 12:22:07;;;;;;;8.95;4.50;;;6.20;99.90;;;;;;4956932;28;20661;-72
2020/12/25 12:24:36;;;;;;;8.27;3.90;;;6.30;99.90;;;;;;4961221;28;20183;-72
2020/12/25 12:27:07;;;;;;;9.60;3.85;;;6.40;99.90;;;;;;4975910;28;20203;-73
2020/12/25 12:29:37;;;;;;;7.10;3.17;;;6.50;99.90;;;;;;4947525;29;20191;-72
2020/12/25 12:32:03;;;;;;;7.20;3.22;;;6.50;99.90;;;;;;4967794;28;20194;-73
2020/12/25 12:34:34;;;;;;;5.88;3.42;;;6.50;99.90;;;;;;4943584;28;20676;-73
2020/12/25 12:37:03;;;;;;;4.32;3.00;;;6.60;99.90;;;;;;4975151;28;20227;-73
2020/12/25 12:39:32;;;;;;;8.15;2.97;;;6.70;99.90;;;;;;4948704;29;20222;-73
2020/12/25 12:41:58;;;;;;;8.05;4.40;;;6.70;99.90;;;;;;4957382;28;20267;-73
2020/12/25 12:44:29;;;;;;;6.22;2.97;;;6.60;99.90;;;;;;4940605;29;20199;-73
2020/12/25 12:46:55;;;;;;;5.68;2.38;;;6.50;99.90;;;;;;4955099;28;20263;-73
2020/12/25 12:49:26;;;;;;;4.03;2.35;;;6.30;99.90;;;;;;4966398;28;20198;-73
2020/12/25 12:51:52;;;;;;;7.35;2.58;;;6.30;99.90;;;;;;4958154;28;20176;-73
2020/12/25 12:54:18;;;;;;;6.13;2.80;;;6.20;99.90;;;;;;4971853;28;20179;-73
2020/12/25 12:56:47;;;;;;;7.97;2.70;;;6.20;99.90;;;;;;4960770;28;20338;-72
2020/12/25 12:59:13;;;;;;;9.55;2.90;;;6.20;99.90;;;;;;4958055;28;20180;-72
2020/12/25 13:01:42;;;;;;;9.38;2.80;;;6.20;99.90;;;;;;4955800;29;20188;-73
2020/12/25 13:04:10;;;;;;;19.42;15.82;;;6.10;99.90;;;;;;4956867;28;20192;-73